Terminal Aerodrome Forecast
Issued by NWS Grand Forks, ND

Home | Current Version | Previous Version | Text Only | Print | Product List | Glossary On
Versions: 1 2 3 4 5 6 7 8 9 10 11 12 13 14
000
FTUS43 KFGF 221128
TAFFAR
TAF
KFAR 221128Z 2212/2312 23011G18KT P6SM SCT150
     FM221800 21016G25KT P6SM SCT250
     FM230100 20014G22KT P6SM SCT040 BKN070=

USA.gov is the U.S. government's official web portal to all federal, state and local government web resources and services.